Clinton, WA

10:26 PST le 22 décembre 2014 (GMT -0800)
Campbell's Glen | Change Station
CLOSE
Current Station
Stations météorologiques personnelles
Location: Clinton, WA
Altitude: 418 ft
Stations météo à proximité

Alt. 418 ft 47.99 °N, 122.39 °W | Updated 11 minutes ago

Couvert
Couvert
45.5 ° F
Paraît 46 ° F
N
0.0
Vent Variable Vent de Nord
Gusts 0.0 mph

Aujourd'hui
Haut(e) -- | Bas -- ° F
--% Risque de précip.
Hier
Haut(e) -- | Bas -- ° F
Precip. -- pouce
7:57 AM 4:19 PM
Nouvelle lune, 1% visible
Pression 30.37 pouce
Visibilité 10.0 Miles terrestres
Nuages Nuages épars 2000 ft
Refroidissement éolien 46 ° F
Point de rosée 41 ° F
Humidité 85%
Précipitations 0.00 pouce
Profondeur de la couche neigeuse Non disponible.
UV 1 sur 12
Pollen .50 sur 12
Qualité de l'air Non disponible.
Flu Activity Non disponible.
METAR KPAE 221753Z COR 15003KT 10SM SCT020 08/04 A3036 RMK AO2 SLP284 T00780039 10083 20056 53026

More Conditions Fewer Conditions

Pression 30.37 pouce
Visibilité 10.0 Miles terrestres
Nuages Nuages épars 2000 ft
Refroidissement éolien 46 ° F
Point de rosée 41 ° F
Humidité 85%
Précipitations 0.00 pouce
Profondeur de la couche neigeuse Non disponible.
UV 1 sur 12
Pollen .50 sur 12
Qualité de l'air Non disponible.
Flu Activity Non disponible.
METAR KPAE 221753Z COR 15003KT 10SM SCT020 08/04 A3036 RMK AO2 SLP284 T00780039 10083 20056 53026

More Conditions Fewer Conditions

10-Day Weather Forecast

Almanac

Astronomie

Dec. 22, 2014 Lever Coucher
Temps réel
Crépuscule civil
Crépuscule nautique
Crépuscule astronomique
Lune
Durée de lumière visible
Longueur du jour
Tomorrow will be .
, % of the Moon is Illuminated

Extrêmes aujourd'hui

State Highs State Lows

Community

WunderPhotos

Upload Photos

1,779,663 Photos téléchargées !

WunderBlogs® & News

Nearby

Qualité de l'air

  Qualité de l'air Indice de la qualité de l'air Polluant
Not available.

Épaisseur de neige

Station Depth Altitude

Activité sismique

Ville Distance Mag. Time & Date
Minimum magnitude displayed is 2.5.

Températures des eaux côtières

Lieu Température

Stations météo à proximité